Time;durP1;ratioP1;P1;durP2;ratioP2;P2;SDS_P1;SDS_P2;PMS_P1;PMS_P2;Temp;Humidity;BMP_temperature;BMP_pressure;BME280_temperature;BME280_humidity;BME280_pressure;Samples;Min_cycle;Max_cycle;Signal;HPM_P1;HPM_P2
2022/08/12 00:44:55;;;;;;;10.07;9.77;;;19.80;99.90;;;;;;5020658;28;20224;-78
2022/08/12 00:47:25;;;;;;;10.20;9.90;;;19.70;99.90;;;;;;5021437;28;20228;-79
2022/08/12 00:49:56;;;;;;;10.40;10.10;;;19.70;99.90;;;;;;5020531;28;20236;-79
2022/08/12 00:52:25;;;;;;;10.30;10.00;;;19.70;99.90;;;;;;5021071;28;20216;-79
2022/08/12 00:54:56;;;;;;;10.40;10.10;;;19.60;99.90;;;;;;5019798;28;20227;-80
2022/08/12 00:57:28;;;;;;;10.40;10.10;;;19.60;99.90;;;;;;5021478;28;20236;-79
2022/08/12 00:59:59;;;;;;;10.00;9.70;;;19.60;99.90;;;;;;5021393;28;20231;-80
2022/08/12 01:02:31;;;;;;;10.30;10.00;;;19.50;99.90;;;;;;5020872;28;20283;-79
2022/08/12 01:13:40;;;;;;;10.13;9.82;;;19.40;99.90;;;;;;5020036;28;20259;-79
2022/08/12 01:16:10;;;;;;;10.18;9.88;;;19.30;99.90;;;;;;5019684;28;20259;-80
2022/08/12 01:18:40;;;;;;;10.32;10.02;;;19.20;99.90;;;;;;5019901;28;20240;-80
2022/08/12 01:21:26;;;;;;;10.25;9.95;;;19.10;99.90;;;;;;5020403;28;20224;-80
2022/08/12 01:24:21;;;;;;;9.90;9.60;;;19.00;99.90;;;;;;5020151;28;20243;-79
2022/08/12 01:26:59;;;;;;;10.20;9.90;;;18.90;99.90;;;;;;5020498;28;20227;-79
2022/08/12 01:29:33;;;;;;;10.30;10.00;;;18.90;99.90;;;;;;5020467;28;20239;-79
2022/08/12 01:32:07;;;;;;;10.20;9.90;;;18.80;99.90;;;;;;5020460;28;20255;-79
2022/08/12 01:34:38;;;;;;;10.18;9.88;;;18.70;99.90;;;;;;5019490;28;20235;-80
2022/08/12 01:37:08;;;;;;;10.20;9.90;;;18.60;99.90;;;;;;5019099;28;20716;-80
2022/08/12 01:39:43;;;;;;;10.25;9.95;;;18.50;99.90;;;;;;5019814;28;20328;-80
2022/08/12 01:42:21;;;;;;;10.40;10.10;;;18.40;99.90;;;;;;5020197;28;20220;-80
2022/08/12 01:44:52;;;;;;;10.13;9.82;;;18.30;99.90;;;;;;5019238;28;20228;-80
2022/08/12 01:47:41;;;;;;;10.15;9.85;;;18.20;99.90;;;;;;5020514;28;20237;-80
2022/08/12 01:50:23;;;;;;;10.15;9.85;;;18.00;99.90;;;;;;5019994;28;20263;-78
2022/08/12 01:52:59;;;;;;;10.10;9.80;;;17.90;99.90;;;;;;5019736;28;20243;-80
2022/08/12 01:55:32;;;;;;;10.30;10.00;;;17.80;99.90;;;;;;5018970;28;20230;-79
2022/08/12 01:58:27;;;;;;;9.93;9.63;;;17.60;99.90;;;;;;5020212;28;20232;-80
2022/08/12 02:01:02;;;;;;;10.27;9.98;;;17.50;99.90;;;;;;5020246;28;20224;-80
2022/08/12 02:12:49;;;;;;;10.50;10.20;;;17.10;99.90;;;;;;5029467;28;20275;-79
2022/08/12 02:15:30;;;;;;;10.48;10.18;;;17.00;99.90;;;;;;5028776;28;20224;-80
2022/08/12 02:18:21;;;;;;;10.20;9.90;;;16.80;99.90;;;;;;5029282;28;20224;-80
2022/08/12 02:21:03;;;;;;;10.30;10.00;;;16.80;99.90;;;;;;5029167;28;20224;-80
2022/08/12 02:23:33;;;;;;;10.00;9.70;;;16.70;99.90;;;;;;5029591;28;20247;-79
2022/08/12 02:26:07;;;;;;;10.10;9.80;;;16.60;99.90;;;;;;5029308;28;20252;-79
2022/08/12 02:28:43;;;;;;;10.13;9.82;;;16.60;99.90;;;;;;5029393;28;20216;-79
2022/08/12 02:31:20;;;;;;;10.18;9.88;;;16.50;99.90;;;;;;5027218;28;20295;-80
2022/08/12 02:33:48;;;;;;;10.00;9.70;;;16.50;99.90;;;;;;5027638;28;20240;-79
2022/08/12 02:36:18;;;;;;;9.90;9.60;;;16.50;99.90;;;;;;5029261;28;20262;-79
2022/08/12 02:38:47;;;;;;;10.00;9.70;;;16.50;99.90;;;;;;5029109;28;20284;-79
2022/08/12 02:41:17;;;;;;;10.30;10.00;;;16.40;99.90;;;;;;5029667;28;20311;-79
2022/08/12 02:43:54;;;;;;;10.05;9.75;;;16.40;99.90;;;;;;5030314;28;20255;-79
2022/08/12 02:46:33;;;;;;;10.30;10.00;;;16.40;99.90;;;;;;5024786;28;20250;-79
2022/08/12 02:49:06;;;;;;;10.20;9.90;;;16.30;99.90;;;;;;5021587;28;20231;-79
2022/08/12 02:51:40;;;;;;;10.25;9.95;;;16.30;99.90;;;;;;5022185;28;20236;-79
2022/08/12 02:54:08;;;;;;;10.10;9.80;;;16.30;99.90;;;;;;5022632;28;20220;-78
2022/08/12 02:56:39;;;;;;;10.20;9.90;;;16.30;99.90;;;;;;5021006;28;20236;-79
2022/08/12 02:59:09;;;;;;;10.18;9.88;;;16.30;99.90;;;;;;5022226;28;20232;-80
2022/08/12 03:01:45;;;;;;;10.52;10.23;;;16.20;99.90;;;;;;5022537;28;20217;-80
2022/08/12 03:04:19;;;;;;;10.20;9.90;;;16.20;99.90;;;;;;5021513;28;20227;-80
2022/08/12 03:06:59;;;;;;;10.00;9.70;;;16.20;99.90;;;;;;5021170;28;20267;-79
2022/08/12 03:09:33;;;;;;;9.98;9.68;;;16.20;99.90;;;;;;5021055;28;20228;-79
2022/08/12 03:12:05;;;;;;;9.80;9.50;;;16.20;99.90;;;;;;5021990;28;20239;-80
2022/08/12 03:14:35;;;;;;;9.90;9.60;;;16.20;99.90;;;;;;5021432;28;20240;-79
2022/08/12 03:17:16;;;;;;;9.90;9.60;;;16.20;99.90;;;;;;5020603;28;20314;-80
2022/08/12 03:19:44;;;;;;;9.90;9.60;;;16.20;99.90;;;;;;5021519;28;20220;-80
2022/08/12 03:22:13;;;;;;;9.80;9.50;;;16.10;99.90;;;;;;5020695;28;20235;-79
2022/08/12 03:24:43;;;;;;;9.90;9.60;;;16.10;99.90;;;;;;5020848;28;20239;-80
2022/08/12 03:27:14;;;;;;;9.65;9.35;;;16.10;99.90;;;;;;5023122;28;20232;-80
2022/08/12 03:29:46;;;;;;;10.00;9.70;;;16.00;99.90;;;;;;5021562;28;20371;-81
2022/08/12 03:32:15;;;;;;;9.63;9.32;;;16.00;99.90;;;;;;5021711;28;20240;-79
2022/08/12 03:34:44;;;;;;;9.60;9.30;;;16.00;99.90;;;;;;5020569;28;20238;-78
2022/08/12 03:37:15;;;;;;;10.85;10.55;;;16.00;99.90;;;;;;5024396;28;20314;-80
2022/08/12 03:39:45;;;;;;;11.10;10.80;;;16.00;99.90;;;;;;5029153;28;20272;-81
2022/08/12 03:42:24;;;;;;;11.25;10.95;;;16.00;99.90;;;;;;5031602;28;20315;-80
2022/08/12 04:02:03;;;;;;;11.63;11.23;;;16.20;99.90;;;;;;5029212;28;20225;-80
2022/08/12 04:04:43;;;;;;;11.90;11.50;;;16.30;99.90;;;;;;5027788;28;20315;-79
2022/08/12 04:07:13;;;;;;;11.18;10.88;;;16.30;99.90;;;;;;5024620;28;20231;-79
2022/08/12 04:09:46;;;;;;;11.30;11.00;;;16.30;99.90;;;;;;5024106;28;20335;-80
2022/08/12 04:15:05;;;;;;;11.25;10.95;;;16.30;99.90;;;;;;5023328;28;20224;-80
2022/08/12 04:17:34;;;;;;;10.70;10.40;;;16.30;99.90;;;;;;5023195;28;20258;-80
2022/08/12 04:20:12;;;;;;;10.88;10.57;;;16.30;99.90;;;;;;5022969;28;20346;-79
2022/08/12 04:22:43;;;;;;;10.68;10.38;;;16.30;99.90;;;;;;5018657;28;20236;-78
2022/08/12 04:25:12;;;;;;;10.80;10.50;;;16.30;99.90;;;;;;5018325;28;20227;-79
2022/08/12 04:27:42;;;;;;;10.57;10.27;;;16.30;99.90;;;;;;5018539;28;20328;-79
2022/08/12 04:30:12;;;;;;;10.80;10.50;;;16.20;99.90;;;;;;5018489;28;20236;-79
2022/08/12 04:32:40;;;;;;;10.60;10.30;;;16.20;99.90;;;;;;5018336;28;20305;-79
2022/08/12 04:35:12;;;;;;;10.80;10.50;;;16.10;99.90;;;;;;5017435;28;20374;-77
2022/08/12 04:37:40;;;;;;;10.52;10.23;;;16.00;99.90;;;;;;5017629;28;20303;-78
2022/08/12 04:40:12;;;;;;;10.63;10.32;;;16.10;99.90;;;;;;5018070;28;20238;-79
2022/08/12 04:42:39;;;;;;;10.82;10.52;;;16.10;99.90;;;;;;5018841;28;20240;-79
2022/08/12 04:45:08;;;;;;;10.65;10.35;;;16.20;99.90;;;;;;5018488;28;20224;-78
2022/08/12 04:47:36;;;;;;;11.00;10.70;;;16.20;99.90;;;;;;5018926;28;20240;-78
2022/08/12 04:50:04;;;;;;;10.90;10.60;;;16.30;99.90;;;;;;5019074;28;20239;-78
2022/08/12 04:52:33;;;;;;;10.75;10.45;;;16.30;99.90;;;;;;5018467;28;20247;-78
2022/08/12 04:55:01;;;;;;;10.80;10.50;;;16.30;99.90;;;;;;5021296;28;20236;-79
2022/08/12 04:57:29;;;;;;;10.95;10.65;;;16.40;99.90;;;;;;5019641;28;20232;-78
2022/08/12 04:59:56;;;;;;;10.82;10.52;;;16.50;99.90;;;;;;5018936;28;20239;-78
2022/08/12 05:02:25;;;;;;;10.80;10.50;;;16.50;99.90;;;;;;5019349;28;20322;-79
2022/08/12 05:04:55;;;;;;;11.05;10.75;;;16.60;99.90;;;;;;5018853;28;20259;-78
2022/08/12 05:07:23;;;;;;;10.98;10.68;;;16.70;99.90;;;;;;5018781;28;20232;-78
2022/08/12 05:09:52;;;;;;;10.88;10.57;;;16.70;99.90;;;;;;5018475;28;20308;-78
2022/08/12 05:12:19;;;;;;;10.75;10.45;;;16.80;99.90;;;;;;5018255;28;20240;-79
2022/08/12 05:14:47;;;;;;;10.65;10.35;;;16.90;99.90;;;;;;5017678;28;20708;-78
2022/08/12 05:17:14;;;;;;;10.80;10.50;;;17.00;99.90;;;;;;5018264;28;20236;-79
2022/08/12 05:19:42;;;;;;;10.85;10.55;;;17.00;99.90;;;;;;5017971;28;20236;-79
2022/08/12 05:22:10;;;;;;;10.98;10.68;;;17.00;99.90;;;;;;5018153;28;20221;-79
2022/08/12 05:24:42;;;;;;;10.75;10.45;;;17.10;99.90;;;;;;5017336;28;20236;-79
2022/08/12 05:27:13;;;;;;;11.00;10.70;;;17.20;99.90;;;;;;5017542;28;20243;-79
2022/08/12 05:29:41;;;;;;;10.70;10.40;;;17.20;99.90;;;;;;5017845;28;20251;-79
2022/08/12 05:32:10;;;;;;;10.90;10.60;;;17.40;99.90;;;;;;5017492;28;20276;-79
2022/08/12 05:34:37;;;;;;;10.73;10.43;;;17.50;99.90;;;;;;5017243;28;20232;-79
2022/08/12 05:37:06;;;;;;;10.90;10.60;;;17.60;99.90;;;;;;5016599;28;20244;-77
2022/08/12 05:39:37;;;;;;;10.65;10.35;;;17.60;99.90;;;;;;5016710;28;20266;-78
2022/08/12 05:42:07;;;;;;;10.70;10.40;;;17.60;99.90;;;;;;5020816;28;20236;-79
2022/08/12 05:44:38;;;;;;;10.70;10.40;;;17.70;99.90;;;;;;5024633;28;20224;-81
2022/08/12 05:47:07;;;;;;;10.65;10.35;;;17.80;99.90;;;;;;5024509;28;20242;-80
2022/08/12 05:49:39;;;;;;;10.73;10.43;;;17.90;99.90;;;;;;5024448;28;20689;-82
2022/08/12 05:52:07;;;;;;;11.15;10.85;;;18.00;99.90;;;;;;5024704;28;20235;-81
2022/08/12 05:54:40;;;;;;;11.00;10.70;;;18.10;99.90;;;;;;5028184;28;20220;-85
2022/08/12 05:57:12;;;;;;;10.98;10.68;;;18.20;99.90;;;;;;5027120;28;20246;-84
2022/08/12 05:59:52;;;;;;;10.80;10.50;;;18.40;99.90;;;;;;5028388;28;20283;-83
2022/08/12 06:02:22;;;;;;;10.82;10.52;;;18.50;99.90;;;;;;5027022;28;20247;-88
2022/08/12 06:04:52;;;;;;;11.10;10.80;;;18.60;99.90;;;;;;5024616;28;20224;-90
2022/08/12 06:07:23;;;;;;;10.80;10.50;;;18.70;99.90;;;;;;5024005;28;20232;-85
2022/08/12 06:15:36;;;;;;;11.40;11.00;;;19.20;99.90;;;;;;5024021;28;20231;-84
2022/08/12 06:18:29;;;;;;;11.02;10.73;;;19.30;99.90;;;;;;5024339;28;20228;-86
2022/08/12 06:23:46;;;;;;;11.43;11.02;;;19.60;99.90;;;;;;5024524;28;20310;-85
2022/08/12 06:26:23;;;;;;;10.98;10.68;;;19.70;99.90;;;;;;5022689;28;20232;-92
2022/08/12 06:28:54;;;;;;;11.02;10.73;;;19.80;99.90;;;;;;5024701;28;20232;-85
2022/08/12 06:31:25;;;;;;;11.02;10.73;;;19.80;99.90;;;;;;5025195;28;20232;-85
2022/08/12 06:33:54;;;;;;;11.60;11.20;;;20.00;99.90;;;;;;5023172;28;20256;-87
2022/08/12 06:36:24;;;;;;;11.27;10.98;;;20.00;99.90;;;;;;5021305;28;20251;-87
2022/08/12 06:38:51;;;;;;;11.10;10.80;;;20.10;99.90;;;;;;5023623;28;20267;-86
2022/08/12 06:44:19;;;;;;;11.30;11.00;;;20.30;99.90;;;;;;5023203;28;20220;-91
2022/08/12 06:50:17;;;;;;;11.45;11.15;;;20.40;99.90;;;;;;5024683;28;20221;-91
2022/08/12 06:52:49;;;;;;;11.10;10.80;;;20.60;99.90;;;;;;5021772;28;20239;-92
2022/08/12 06:58:29;;;;;;;11.20;10.90;;;20.90;99.90;;;;;;5022799;28;20242;-91
2022/08/12 07:00:58;;;;;;;11.10;10.80;;;21.00;99.90;;;;;;5023625;28;20242;-85
2022/08/12 07:06:14;;;;;;;11.05;10.75;;;21.20;99.90;;;;;;5020710;28;20220;-84
2022/08/12 07:08:44;;;;;;;11.02;10.73;;;21.40;99.90;;;;;;5022547;28;20310;-86
2022/08/12 07:14:20;;;;;;;11.18;10.88;;;21.60;99.90;;;;;;5001229;28;20236;-83
2022/08/12 07:25:55;;;;;;;10.80;10.50;;;22.10;99.90;;;;;;5021747;28;20224;-84
2022/08/12 07:37:20;;;;;;;11.05;10.75;;;22.70;99.90;;;;;;5023296;28;20232;-84
2022/08/12 07:39:50;;;;;;;11.18;10.88;;;22.90;99.90;;;;;;5023325;28;20238;-84
2022/08/12 07:45:13;;;;;;;11.30;11.00;;;23.20;99.90;;;;;;5019949;28;20278;-84
2022/08/12 07:55:11;;;;;;;10.88;10.57;;;23.50;99.90;;;;;;4995776;28;20807;-83
2022/08/12 08:07:34;;;;;;;11.10;10.80;;;24.00;99.90;;;;;;5021417;28;20221;-85
2022/08/12 08:13:11;;;;;;;11.32;11.02;;;24.20;99.90;;;;;;5033409;28;20271;-84
2022/08/12 08:16:04;;;;;;;11.35;11.05;;;24.30;99.90;;;;;;5032280;28;20216;-84
2022/08/12 08:18:52;;;;;;;11.00;10.70;;;24.40;99.90;;;;;;5021094;28;20224;-83
2022/08/12 08:21:50;;;;;;;11.35;11.05;;;24.50;99.90;;;;;;5035789;28;20239;-83
2022/08/12 08:24:29;;;;;;;11.15;10.85;;;24.50;99.90;;;;;;5024640;28;20252;-83
2022/08/12 08:27:26;;;;;;;11.15;10.85;;;24.70;99.90;;;;;;5023441;28;20232;-84
2022/08/12 08:33:36;;;;;;;11.10;10.80;;;24.70;99.90;;;;;;5016727;28;20232;-84
2022/08/12 08:36:40;;;;;;;11.10;10.80;;;24.70;99.90;;;;;;5021019;28;20225;-83
2022/08/12 08:39:08;;;;;;;11.00;10.70;;;24.80;99.90;;;;;;5021996;28;20322;-83
2022/08/12 08:45:11;;;;;;;11.10;10.80;;;25.00;99.90;;;;;;5022651;28;20234;-83
2022/08/12 08:47:47;;;;;;;11.20;10.90;;;25.10;99.90;;;;;;5016545;28;20236;-84
2022/08/12 08:50:37;;;;;;;11.25;10.95;;;25.30;99.90;;;;;;5021712;28;20231;-83
2022/08/12 08:53:07;;;;;;;11.52;11.15;;;25.40;99.90;;;;;;5015964;28;20220;-87
2022/08/12 08:55:35;;;;;;;11.48;11.18;;;25.40;99.90;;;;;;5022280;28;20236;-84
2022/08/12 08:58:03;;;;;;;11.00;10.70;;;25.40;99.90;;;;;;5025399;28;20255;-84
2022/08/12 09:00:51;;;;;;;11.00;10.70;;;25.60;99.90;;;;;;5028278;28;20232;-83
2022/08/12 09:03:19;;;;;;;11.20;10.90;;;25.70;99.90;;;;;;5024484;28;20232;-83
2022/08/12 09:05:49;;;;;;;10.93;10.63;;;25.90;99.90;;;;;;5025228;28;20236;-83
2022/08/12 09:08:19;;;;;;;11.20;10.90;;;26.00;99.90;;;;;;5023056;28;20319;-83
2022/08/12 09:10:48;;;;;;;10.88;10.57;;;26.20;99.90;;;;;;5024401;28;20239;-83
2022/08/12 09:13:27;;;;;;;10.80;10.50;;;26.40;99.90;;;;;;5023352;28;20296;-84
2022/08/12 09:16:23;;;;;;;11.20;10.90;;;26.60;99.90;;;;;;5019946;28;20304;-82
2022/08/12 09:18:51;;;;;;;10.80;10.50;;;26.90;99.90;;;;;;5027152;28;20232;-84
2022/08/12 09:21:31;;;;;;;10.88;10.57;;;27.10;99.90;;;;;;5028110;28;20228;-84
2022/08/12 09:23:59;;;;;;;11.32;11.02;;;27.30;99.90;;;;;;5026916;28;20231;-83
2022/08/12 09:26:29;;;;;;;11.18;10.88;;;27.60;99.90;;;;;;5026368;28;20236;-84
2022/08/12 09:28:59;;;;;;;11.10;10.80;;;27.60;99.90;;;;;;5027669;28;20259;-83
2022/08/12 09:31:30;;;;;;;11.27;10.98;;;27.60;99.90;;;;;;5022897;28;20300;-83
2022/08/12 09:33:57;;;;;;;11.20;10.90;;;27.60;99.90;;;;;;5028262;28;20263;-83
2022/08/12 09:39:07;;;;;;;11.15;10.85;;;27.40;99.90;;;;;;5027324;28;20254;-83
2022/08/12 09:45:19;;;;;;;11.27;10.98;;;27.20;99.90;;;;;;5029342;28;20288;-84
2022/08/12 09:47:28;;;;;;;11.25;10.95;;;27.30;99.90;;;;;;5023303;28;20215;-84
2022/08/12 09:49:56;;;;;;;10.93;10.63;;;27.40;99.90;;;;;;5039620;28;20269;-84
2022/08/12 09:52:35;;;;;;;10.93;10.63;;;27.70;99.90;;;;;;5041755;28;20220;-84
2022/08/12 09:55:04;;;;;;;11.10;10.80;;;28.00;99.90;;;;;;5040900;28;20212;-84
2022/08/12 09:57:32;;;;;;;11.00;10.70;;;28.30;99.90;;;;;;5041391;28;20262;-84
2022/08/12 10:02:59;;;;;;;11.18;10.88;;;28.40;99.90;;;;;;5041727;28;20238;-83
2022/08/12 10:05:37;;;;;;;11.10;10.80;;;28.30;99.90;;;;;;5040385;28;20211;-81
2022/08/12 10:08:09;;;;;;;10.93;10.63;;;28.30;99.90;;;;;;5039707;28;20231;-82
2022/08/12 10:13:40;;;;;;;10.77;10.48;;;28.70;99.90;;;;;;5039248;28;20288;-82
2022/08/12 10:13:42;;;;;;;10.90;10.60;;;28.80;99.90;;;;;;5033289;28;20239;-82
2022/08/12 10:16:12;;;;;;;10.98;10.68;;;29.00;99.90;;;;;;5030144;28;20322;-81
2022/08/12 10:18:49;;;;;;;11.00;10.70;;;28.70;99.90;;;;;;5025173;28;20264;-84
2022/08/12 10:21:20;;;;;;;10.75;10.45;;;28.50;99.90;;;;;;5025733;28;20254;-83
2022/08/12 10:23:57;;;;;;;10.68;10.38;;;28.60;99.90;;;;;;5023920;28;20323;-83
2022/08/12 10:32:02;;;;;;;10.68;10.38;;;28.50;99.90;;;;;;5023234;28;20220;-83
2022/08/12 10:34:32;;;;;;;10.90;10.60;;;28.50;99.90;;;;;;5021631;28;20260;-83
2022/08/12 10:37:04;;;;;;;10.88;10.57;;;28.40;99.90;;;;;;5021680;28;20299;-82
2022/08/12 10:39:38;;;;;;;10.90;10.60;;;28.30;99.90;;;;;;5021894;28;20246;-82
2022/08/12 10:45:03;;;;;;;10.07;9.77;;;27.90;99.90;;;;;;5022908;28;20264;-81
2022/08/12 10:47:31;;;;;;;10.43;10.13;;;27.80;99.90;;;;;;5022654;28;20319;-81
2022/08/12 10:50:01;;;;;;;10.50;10.20;;;27.60;99.90;;;;;;5021799;28;20236;-83
2022/08/12 10:52:30;;;;;;;10.40;10.10;;;27.50;99.90;;;;;;5021768;28;20235;-82
2022/08/12 10:55:00;;;;;;;10.38;10.07;;;27.40;99.90;;;;;;5021451;28;20247;-83
2022/08/12 10:57:32;;;;;;;10.57;10.27;;;27.30;99.90;;;;;;5021952;28;20239;-83
2022/08/12 11:00:00;;;;;;;11.13;10.82;;;27.40;99.90;;;;;;5021032;28;20248;-82
2022/08/12 11:02:28;;;;;;;10.77;10.48;;;27.70;99.90;;;;;;5022969;28;20263;-82
2022/08/12 11:05:00;;;;;;;10.80;10.50;;;28.00;99.90;;;;;;5021735;28;20227;-79
2022/08/12 11:07:34;;;;;;;11.13;10.82;;;28.60;99.90;;;;;;5022502;28;20232;-82
2022/08/12 11:10:06;;;;;;;10.73;10.43;;;29.00;99.90;;;;;;5022300;28;20216;-83
2022/08/12 11:12:41;;;;;;;10.90;10.60;;;29.10;99.90;;;;;;5022087;28;20251;-82
2022/08/12 11:15:14;;;;;;;10.82;10.52;;;29.10;99.90;;;;;;5021159;28;20277;-82
2022/08/12 11:17:45;;;;;;;10.70;10.40;;;29.40;99.90;;;;;;5021552;28;20227;-81
2022/08/12 11:20:13;;;;;;;10.82;10.52;;;30.00;99.90;;;;;;5022879;28;20236;-82
2022/08/12 11:22:56;;;;;;;10.52;10.23;;;30.20;99.90;;;;;;5022857;28;20239;-82
2022/08/12 11:25:28;;;;;;;10.50;10.20;;;30.40;99.90;;;;;;5021623;28;20259;-83
2022/08/12 11:28:06;;;;;;;10.80;10.50;;;30.40;99.90;;;;;;5021800;28;20550;-82
2022/08/12 11:30:45;;;;;;;10.70;10.40;;;30.30;99.90;;;;;;5020221;28;20236;-81
2022/08/12 11:33:15;;;;;;;11.18;10.88;;;30.10;99.90;;;;;;5017880;28;20228;-82
2022/08/12 11:35:43;;;;;;;11.00;10.70;;;30.40;99.90;;;;;;5019413;28;20252;-83
2022/08/12 11:41:01;;;;;;;11.95;11.55;;;30.80;99.90;;;;;;5020920;28;20234;-82
2022/08/12 11:43:29;;;;;;;11.75;11.35;;;30.80;99.90;;;;;;5021354;28;20240;-82
2022/08/12 11:46:01;;;;;;;12.02;11.63;;;30.50;99.90;;;;;;5020971;28;20232;-83
2022/08/12 11:48:29;;;;;;;12.27;11.88;;;30.20;99.90;;;;;;5021485;28;20246;-82
2022/08/12 11:50:57;;;;;;;11.70;11.30;;;30.10;99.90;;;;;;5020041;28;20228;-82
2022/08/12 11:56:16;;;;;;;12.10;11.70;;;29.70;99.90;;;;;;5020532;28;20321;-82
2022/08/12 11:58:44;;;;;;;12.20;11.80;;;29.80;99.90;;;;;;5021037;28;20232;-83
2022/08/12 12:01:13;;;;;;;11.95;11.55;;;29.90;99.90;;;;;;5021281;28;20228;-84
2022/08/12 12:03:50;;;;;;;11.70;11.30;;;29.50;99.90;;;;;;5021610;28;20251;-82
2022/08/12 12:06:29;;;;;;;11.75;11.35;;;29.30;99.90;;;;;;5020187;28;20295;-81
2022/08/12 12:09:01;;;;;;;11.88;11.48;;;29.40;99.90;;;;;;5020940;28;20220;-83
2022/08/12 12:11:30;;;;;;;11.20;10.90;;;29.60;99.90;;;;;;5021211;28;20230;-81
2022/08/12 12:14:00;;;;;;;10.95;10.65;;;29.80;99.90;;;;;;5021884;28;20263;-81
2022/08/12 12:16:30;;;;;;;11.18;10.88;;;29.90;99.40;;;;;;5020338;28;20228;-81
2022/08/12 12:19:00;;;;;;;11.30;11.00;;;29.90;99.90;;;;;;5021863;28;20224;-81
2022/08/12 12:21:28;;;;;;;11.00;10.70;;;30.10;99.90;;;;;;5022188;28;20314;-81
2022/08/12 12:24:00;;;;;;;10.98;10.68;;;30.50;99.10;;;;;;5021676;28;20236;-81
2022/08/12 12:26:30;;;;;;;11.60;11.20;;;31.00;98.90;;;;;;5022231;28;20212;-82
2022/08/12 12:28:58;;;;;;;11.43;11.13;;;31.30;98.60;;;;;;5024262;28;20232;-82
2022/08/12 12:31:25;;;;;;;12.00;11.60;;;31.80;98.30;;;;;;5028636;28;20299;-81
2022/08/12 12:33:56;;;;;;;12.10;11.70;;;32.30;98.00;;;;;;5029706;28;20232;-82
2022/08/12 12:36:26;;;;;;;11.50;11.20;;;32.60;96.40;;;;;;5019556;28;20266;-82
2022/08/12 12:38:54;;;;;;;11.27;10.98;;;32.70;96.00;;;;;;5023520;28;20229;-82
2022/08/12 12:41:26;;;;;;;11.15;10.85;;;32.50;96.40;;;;;;5021602;28;20700;-82
2022/08/12 12:43:53;;;;;;;11.30;11.00;;;32.40;96.70;;;;;;5022758;28;20275;-82
2022/08/12 12:46:22;;;;;;;11.40;11.10;;;32.70;96.50;;;;;;5020870;28;20263;-82
2022/08/12 12:48:52;;;;;;;10.95;10.65;;;32.80;95.30;;;;;;5021058;28;20271;-82
2022/08/12 12:51:22;;;;;;;11.05;10.75;;;32.60;95.80;;;;;;5020482;28;20279;-81
2022/08/12 12:53:53;;;;;;;10.88;10.57;;;32.40;96.40;;;;;;5022715;28;20251;-81
2022/08/12 12:56:32;;;;;;;11.15;10.85;;;32.40;95.70;;;;;;5021819;28;20715;-81
2022/08/12 12:58:59;;;;;;;11.10;10.80;;;32.00;95.40;;;;;;5021353;28;20229;-82
2022/08/12 13:01:29;;;;;;;11.60;11.20;;;31.60;94.30;;;;;;5020976;28;20319;-80
2022/08/12 13:03:57;;;;;;;11.80;11.40;;;31.20;96.00;;;;;;5020915;28;20236;-81
2022/08/12 13:06:28;;;;;;;11.80;11.40;;;31.00;95.70;;;;;;5017914;28;20232;-80
2022/08/12 13:08:56;;;;;;;11.60;11.27;;;31.20;96.30;;;;;;5017110;28;20219;-81
2022/08/12 13:11:37;;;;;;;11.90;11.50;;;31.10;95.20;;;;;;5020327;28;20270;-81
2022/08/12 13:14:07;;;;;;;11.48;11.18;;;31.00;96.20;;;;;;5020224;28;20236;-80
2022/08/12 13:16:35;;;;;;;11.77;11.38;;;31.30;96.00;;;;;;5019753;28;20228;-80
2022/08/12 13:19:03;;;;;;;11.60;11.25;;;31.60;95.50;;;;;;5019947;28;20239;-83
2022/08/12 13:21:32;;;;;;;11.43;11.13;;;31.70;94.90;;;;;;5018995;28;20335;-83
2022/08/12 13:24:02;;;;;;;11.27;10.98;;;31.60;95.50;;;;;;5019294;28;20295;-83
2022/08/12 13:26:44;;;;;;;11.50;11.20;;;31.90;95.20;;;;;;5018912;28;20290;-84
2022/08/12 13:29:13;;;;;;;11.52;11.20;;;32.10;94.90;;;;;;5020235;28;20243;-84
2022/08/12 13:31:41;;;;;;;11.30;11.00;;;32.40;95.10;;;;;;5019385;28;20284;-85
2022/08/12 13:34:20;;;;;;;11.30;11.00;;;32.40;94.80;;;;;;5019437;28;20282;-85
2022/08/12 13:36:56;;;;;;;11.43;11.13;;;32.50;93.90;;;;;;5019329;28;20275;-85
2022/08/12 13:39:24;;;;;;;11.20;10.90;;;33.00;94.40;;;;;;5019742;28;20255;-82
2022/08/12 13:42:08;;;;;;;11.13;10.82;;;33.50;95.00;;;;;;5020348;28;20303;-83
2022/08/12 13:44:42;;;;;;;11.30;11.00;;;33.90;95.10;;;;;;5018684;28;20232;-84
2022/08/12 13:47:10;;;;;;;11.10;10.80;;;34.30;93.30;;;;;;5018563;28;20306;-83
2022/08/12 13:49:38;;;;;;;11.13;10.82;;;34.40;92.30;;;;;;5020078;28;20232;-82
2022/08/12 13:52:10;;;;;;;11.20;10.90;;;33.80;92.40;;;;;;5019561;28;20232;-82
2022/08/12 13:54:38;;;;;;;11.00;10.70;;;33.10;92.40;;;;;;5019709;28;20267;-84
2022/08/12 13:57:14;;;;;;;11.07;10.77;;;32.50;93.60;;;;;;5019038;28;20284;-82
2022/08/12 13:59:53;;;;;;;11.18;10.88;;;32.50;94.90;;;;;;5019617;28;20256;-83
2022/08/12 14:02:26;;;;;;;11.07;10.77;;;32.40;93.70;;;;;;5021565;28;20291;-83
2022/08/12 14:04:54;;;;;;;11.27;10.98;;;32.20;94.30;;;;;;5023199;28;20299;-83
2022/08/12 14:07:23;;;;;;;10.98;10.68;;;32.20;94.70;;;;;;5023376;28;20323;-83
2022/08/12 14:12:43;;;;;;;11.20;10.90;;;31.90;93.80;;;;;;5023488;28;20283;-83
2022/08/12 14:15:11;;;;;;;10.70;10.40;;;32.10;93.10;;;;;;5021484;28;20243;-85
2022/08/12 14:17:42;;;;;;;10.85;10.55;;;32.00;93.60;;;;;;5022601;28;20224;-85
2022/08/12 14:20:19;;;;;;;11.50;11.20;;;32.30;94.30;;;;;;5021764;28;20410;-82
2022/08/12 14:22:58;;;;;;;11.23;10.93;;;32.50;93.70;;;;;;5024036;28;20251;-82
2022/08/12 14:25:27;;;;;;;10.80;10.50;;;32.80;93.50;;;;;;5023186;28;20228;-83
2022/08/12 14:28:10;;;;;;;10.77;10.48;;;33.20;93.50;;;;;;5023650;28;20236;-82
2022/08/12 14:30:44;;;;;;;10.90;10.60;;;33.30;92.30;;;;;;5023244;28;20224;-82
2022/08/12 14:33:13;;;;;;;10.38;10.07;;;33.40;93.10;;;;;;5023912;28;20349;-83
2022/08/12 14:35:43;;;;;;;10.90;10.60;;;33.60;93.60;;;;;;5022894;28;20290;-83
2022/08/12 14:38:20;;;;;;;10.90;10.60;;;33.80;92.90;;;;;;5022862;28;20228;-82
2022/08/12 14:40:51;;;;;;;10.90;10.60;;;33.50;92.80;;;;;;5023515;28;20251;-81
2022/08/12 14:43:22;;;;;;;11.02;10.73;;;33.00;92.90;;;;;;5023755;28;20236;-82
2022/08/12 14:45:49;;;;;;;11.00;10.70;;;32.10;93.50;;;;;;5024452;28;20259;-82
2022/08/12 14:48:20;;;;;;;11.00;10.70;;;31.80;94.50;;;;;;5027578;28;20247;-80
2022/08/12 14:50:48;;;;;;;10.90;10.60;;;32.10;93.80;;;;;;5028342;28;20221;-81
2022/08/12 14:53:17;;;;;;;11.30;11.00;;;32.50;92.90;;;;;;5035769;28;20223;-79
2022/08/12 14:55:48;;;;;;;11.30;11.00;;;32.30;93.00;;;;;;5041123;28;20266;-78
2022/08/12 14:58:19;;;;;;;11.05;10.75;;;31.80;93.50;;;;;;5040293;28;20255;-79
2022/08/12 15:03:34;;;;;;;10.90;10.60;;;31.90;94.70;;;;;;5033312;28;20244;-83
2022/08/12 15:06:05;;;;;;;11.00;10.70;;;32.20;93.80;;;;;;5020607;28;20243;-82
2022/08/12 15:08:41;;;;;;;10.68;10.38;;;32.20;93.90;;;;;;5024829;28;20323;-83
2022/08/12 15:11:21;;;;;;;10.45;10.15;;;31.90;92.90;;;;;;5024192;28;20255;-82
2022/08/12 15:13:52;;;;;;;10.50;10.20;;;31.80;93.60;;;;;;5022593;28;20228;-82
2022/08/12 15:16:19;;;;;;;10.38;10.07;;;31.70;93.80;;;;;;5022702;28;20271;-82
2022/08/12 15:18:47;;;;;;;10.48;10.18;;;32.00;93.60;;;;;;5023518;28;20324;-81
2022/08/12 15:21:16;;;;;;;10.77;10.48;;;32.20;93.10;;;;;;5023122;28;20220;-82
2022/08/12 15:23:45;;;;;;;10.60;10.30;;;32.00;93.70;;;;;;5023063;28;20228;-82
2022/08/12 15:26:15;;;;;;;10.80;10.50;;;31.90;93.10;;;;;;5022306;28;20232;-82
2022/08/12 15:28:45;;;;;;;10.63;10.32;;;31.80;92.90;;;;;;5021715;28;20235;-81
2022/08/12 15:31:23;;;;;;;10.80;10.50;;;31.40;93.50;;;;;;5017778;28;20247;-84
2022/08/12 15:33:54;;;;;;;10.85;10.55;;;31.70;93.80;;;;;;5021302;28;20228;-84
2022/08/12 15:36:33;;;;;;;10.80;10.50;;;32.30;93.90;;;;;;5018434;28;20255;-84
2022/08/12 15:39:01;;;;;;;10.60;10.30;;;32.80;93.50;;;;;;5021221;28;20228;-82
2022/08/12 15:41:29;;;;;;;11.13;10.82;;;33.30;92.60;;;;;;5001800;28;20221;-81
2022/08/12 15:43:58;;;;;;;10.90;10.60;;;33.20;92.80;;;;;;5001180;28;20236;-81
2022/08/12 15:46:40;;;;;;;10.80;10.50;;;33.00;92.30;;;;;;5002449;28;20260;-82
2022/08/12 15:49:07;;;;;;;10.60;10.30;;;32.70;93.30;;;;;;5000906;28;20231;-81
2022/08/12 15:51:36;;;;;;;10.60;10.30;;;32.50;92.80;;;;;;5002208;28;20229;-82
2022/08/12 15:54:06;;;;;;;10.68;10.38;;;32.50;93.00;;;;;;5003764;28;20233;-81
2022/08/12 15:59:18;;;;;;;10.95;10.65;;;32.50;93.40;;;;;;5000729;28;20279;-81